createdAt,value
2022-08-16T00:05:02.174Z,19.90
2022-08-16T00:10:08.627Z,21.20
2022-08-16T00:15:51.986Z,19.90
2022-08-16T00:20:53.654Z,20.30
2022-08-16T00:26:34.963Z,22.70
2022-08-16T00:31:20.131Z,19.90
2022-08-16T00:36:27.881Z,20.80
2022-08-16T00:41:32.421Z,20.80
2022-08-16T00:47:06.140Z,18.50
2022-08-16T00:52:30.327Z,19.40
2022-08-16T00:57:58.302Z,19.50
2022-08-16T01:03:03.595Z,18.70
2022-08-16T01:08:35.120Z,15.10
2022-08-16T01:13:35.578Z,18.10
2022-08-16T01:18:55.898Z,18.50
2022-08-16T01:24:52.291Z,19.30
2022-08-16T01:30:19.517Z,17.80
2022-08-16T01:35:30.647Z,16.90
2022-08-16T01:40:38.691Z,19.70
2022-08-16T01:45:43.491Z,20.00
2022-08-16T01:51:09.217Z,18.70
2022-08-16T01:56:24.494Z,17.40
2022-08-16T02:01:29.960Z,17.90
2022-08-16T02:06:37.893Z,17.80
2022-08-16T02:11:48.558Z,17.50
2022-08-16T02:16:59.472Z,16.20
2022-08-16T02:22:08.927Z,16.20
2022-08-16T02:27:26.742Z,18.30
2022-08-16T02:32:49.000Z,18.70
2022-08-16T02:37:56.181Z,23.50
2022-08-16T02:42:59.514Z,21.80
2022-08-16T02:48:29.503Z,22.70
2022-08-16T02:53:27.075Z,21.10
2022-08-16T02:58:33.889Z,21.40
2022-08-16T03:04:39.792Z,22.20
2022-08-16T03:09:01.285Z,24.50
2022-08-16T03:14:07.389Z,23.70
2022-08-16T03:19:11.090Z,24.30
2022-08-16T03:24:29.260Z,23.20
2022-08-16T03:29:34.012Z,22.00
2022-08-16T03:34:37.048Z,23.70
2022-08-16T03:39:42.928Z,23.20
2022-08-16T03:44:47.554Z,24.30
2022-08-16T03:49:52.539Z,24.90
2022-08-16T03:54:58.266Z,24.30
2022-08-16T04:00:20.613Z,24.90
2022-08-16T04:05:47.442Z,24.60
2022-08-16T04:10:53.050Z,23.60
2022-08-16T04:15:59.422Z,26.00
2022-08-16T04:21:04.634Z,26.30
2022-08-16T04:26:08.260Z,26.30
2022-08-16T04:36:23.811Z,25.60
2022-08-16T04:41:32.897Z,24.90
2022-08-16T04:47:02.936Z,25.20
2022-08-16T04:52:05.878Z,26.10
2022-08-16T04:57:30.132Z,26.40
2022-08-16T05:02:41.503Z,25.30
2022-08-16T05:07:59.645Z,25.50
2022-08-16T05:13:04.861Z,25.90
2022-08-16T05:18:16.183Z,26.40
2022-08-16T05:23:21.154Z,27.10
2022-08-16T05:28:37.367Z,26.70
2022-08-16T05:33:42.096Z,26.40
2022-08-16T05:38:45.661Z,27.70
2022-08-16T05:43:49.477Z,27.10
2022-08-16T05:48:55.246Z,27.20
2022-08-16T05:53:59.884Z,24.90
2022-08-16T05:59:03.031Z,25.50
2022-08-16T06:04:12.888Z,25.80
2022-08-16T06:09:43.551Z,26.20
2022-08-16T06:19:54.889Z,24.60
2022-08-16T06:24:59.027Z,24.60
2022-08-16T06:30:04.135Z,25.60
2022-08-16T06:35:09.673Z,25.50
2022-08-16T06:40:15.929Z,26.10
2022-08-16T06:45:19.734Z,24.30
2022-08-16T06:50:29.699Z,23.90
2022-08-16T06:55:34.852Z,25.70
2022-08-16T07:00:42.996Z,23.80
2022-08-16T07:05:46.829Z,23.60
2022-08-16T07:10:51.224Z,23.80
2022-08-16T07:15:54.526Z,23.10
2022-08-16T07:21:01.979Z,22.30
2022-08-16T07:26:11.425Z,21.20
2022-08-16T07:31:38.083Z,22.50
2022-08-16T07:36:41.526Z,21.20
2022-08-16T07:41:48.521Z,20.70
2022-08-16T07:46:55.462Z,19.90
2022-08-16T07:51:59.728Z,20.10
2022-08-16T07:57:02.870Z,22.00
2022-08-16T08:02:06.278Z,20.30
2022-08-16T08:07:16.263Z,20.20
2022-08-16T08:12:31.612Z,21.10
2022-08-16T08:17:43.026Z,19.90
2022-08-16T08:22:49.386Z,18.70
2022-08-16T08:27:57.464Z,17.20
2022-08-16T08:33:01.314Z,17.40
2022-08-16T08:38:08.664Z,19.20
2022-08-16T08:43:17.960Z,18.20
2022-08-16T08:48:33.329Z,20.20
2022-08-16T08:53:39.907Z,19.20
2022-08-16T08:58:53.689Z,19.50
2022-08-16T09:03:58.677Z,18.30
2022-08-16T09:09:03.648Z,18.00
2022-08-16T09:14:07.318Z,12.20
2022-08-16T09:19:10.298Z,13.20
2022-08-16T09:24:13.342Z,12.80
2022-08-16T09:29:44.863Z,12.00
2022-08-16T09:34:48.973Z,13.30
2022-08-16T09:39:52.471Z,14.00
2022-08-16T09:45:11.181Z,15.10
2022-08-16T09:50:22.660Z,14.00
2022-08-16T09:55:29.064Z,13.90
2022-08-16T10:00:44.506Z,14.10
2022-08-16T10:05:49.705Z,15.40
2022-08-16T10:11:11.994Z,13.80
2022-08-16T10:21:23.574Z,14.50
2022-08-16T10:27:17.071Z,14.40
2022-08-16T10:31:53.629Z,13.70
2022-08-16T10:37:02.521Z,14.90
2022-08-16T10:42:07.139Z,13.50
2022-08-16T10:47:12.010Z,13.10
2022-08-16T10:52:19.036Z,13.80
2022-08-16T10:57:24.603Z,14.00
2022-08-16T11:02:57.560Z,14.20
2022-08-16T11:07:53.531Z,14.70
2022-08-16T11:13:21.156Z,15.90
2022-08-16T11:18:48.604Z,17.70
2022-08-16T11:23:57.566Z,17.90
2022-08-16T11:29:17.540Z,18.20
2022-08-16T11:34:22.015Z,16.30
2022-08-16T11:39:25.099Z,17.10
2022-08-16T11:44:45.376Z,17.50
2022-08-16T11:49:51.775Z,16.30
2022-08-16T11:54:57.055Z,17.30
2022-08-16T12:00:33.855Z,17.60
2022-08-16T12:05:35.360Z,16.80
2022-08-16T12:10:43.114Z,16.00
2022-08-16T12:15:47.552Z,16.60
2022-08-16T12:20:51.928Z,15.90
2022-08-16T12:25:58.556Z,15.80
2022-08-16T12:31:02.936Z,16.10
2022-08-16T12:36:06.203Z,17.80
2022-08-16T12:41:24.450Z,17.90
2022-08-16T12:46:29.950Z,17.30
2022-08-16T12:51:59.046Z,18.30
2022-08-16T12:57:03.195Z,20.00
2022-08-16T13:02:06.711Z,18.90
2022-08-16T13:07:16.508Z,21.00
2022-08-16T13:12:25.084Z,20.80
2022-08-16T13:17:29.813Z,19.90
2022-08-16T13:22:33.359Z,20.70
2022-08-16T13:28:01.680Z,22.30
2022-08-16T13:32:59.920Z,21.20
2022-08-16T13:38:03.680Z,22.30
2022-08-16T13:43:11.396Z,20.20
2022-08-16T13:48:21.838Z,21.00
2022-08-16T13:53:28.532Z,19.70
2022-08-16T13:58:37.143Z,21.80
2022-08-16T14:03:54.526Z,20.90
2022-08-16T14:08:59.323Z,21.40
2022-08-16T14:19:19.032Z,20.40
2022-08-16T14:24:30.244Z,21.40
2022-08-16T14:29:35.124Z,21.70
2022-08-16T14:34:41.940Z,21.40
2022-08-16T14:39:45.438Z,21.70
2022-08-16T14:44:49.332Z,16.80
2022-08-16T14:49:53.034Z,19.00
2022-08-16T14:54:56.581Z,17.40
2022-08-16T15:00:06.206Z,19.00
2022-08-16T15:05:12.021Z,16.10
2022-08-16T15:10:24.097Z,17.00
2022-08-16T15:15:30.151Z,19.70
2022-08-16T15:20:35.677Z,17.50
2022-08-16T15:25:47.186Z,17.40
2022-08-16T15:31:14.988Z,16.40
2022-08-16T15:36:20.543Z,15.40
2022-08-16T15:41:38.812Z,17.90
2022-08-16T15:46:56.941Z,17.70
2022-08-16T15:52:03.114Z,12.60
2022-08-16T15:57:11.686Z,12.50
2022-08-16T16:02:18.514Z,12.10
2022-08-16T16:07:33.327Z,13.00
2022-08-16T16:12:50.931Z,13.20
2022-08-16T16:17:58.391Z,12.90
2022-08-16T16:23:10.330Z,13.60
2022-08-16T16:29:05.447Z,14.20
2022-08-16T16:33:44.597Z,14.30
2022-08-16T16:38:49.667Z,16.20
2022-08-16T16:43:55.194Z,16.80
2022-08-16T16:48:58.713Z,16.40
2022-08-16T16:54:02.739Z,16.00
2022-08-16T16:59:09.797Z,17.20
2022-08-16T17:04:19.571Z,15.60
2022-08-16T17:09:25.371Z,15.40
2022-08-16T17:14:32.792Z,14.70
2022-08-16T17:19:41.210Z,16.10
2022-08-16T17:24:50.849Z,14.50
2022-08-16T17:29:55.535Z,15.60
2022-08-16T17:35:03.018Z,14.50
2022-08-16T17:40:25.865Z,17.00
2022-08-16T17:45:40.276Z,16.10
2022-08-16T17:50:43.964Z,14.90
2022-08-16T17:55:50.786Z,16.40
2022-08-16T18:00:57.978Z,15.60
2022-08-16T18:06:01.003Z,16.20
2022-08-16T18:11:06.550Z,14.40
2022-08-16T18:16:12.654Z,15.20
2022-08-16T18:21:34.681Z,14.90
2022-08-16T18:26:38.787Z,14.60
2022-08-16T18:31:41.890Z,15.10
2022-08-16T18:36:44.887Z,16.70
2022-08-16T18:41:48.069Z,15.80
2022-08-16T18:46:51.288Z,15.60
2022-08-16T18:51:59.443Z,17.00
2022-08-16T18:57:07.247Z,16.90
2022-08-16T19:02:57.117Z,16.40
2022-08-16T19:07:34.083Z,18.20
2022-08-16T19:12:42.148Z,20.60
2022-08-16T19:17:46.161Z,21.90
2022-08-16T19:23:10.145Z,22.60
2022-08-16T19:28:48.869Z,25.10
2022-08-16T19:33:40.287Z,24.10
2022-08-16T19:38:43.338Z,23.60
2022-08-16T19:43:47.634Z,23.10
2022-08-16T19:48:50.662Z,23.80
2022-08-16T19:53:53.735Z,22.40
2022-08-16T19:59:18.184Z,23.70
2022-08-16T20:04:21.929Z,21.70
2022-08-16T20:09:25.456Z,22.40
2022-08-16T20:14:28.479Z,24.30
2022-08-16T20:19:40.080Z,27.90
2022-08-16T20:24:43.985Z,26.30
2022-08-16T20:29:48.592Z,25.10
2022-08-16T20:34:55.130Z,25.80
2022-08-16T20:40:28.002Z,23.80
2022-08-16T20:45:26.980Z,24.00
2022-08-16T20:50:30.829Z,23.00
2022-08-16T20:55:36.606Z,23.70
2022-08-16T21:00:40.587Z,24.20
2022-08-16T21:05:44.090Z,22.60
2022-08-16T21:10:47.123Z,23.90
2022-08-16T21:15:50.111Z,23.90
2022-08-16T21:20:53.799Z,24.00
2022-08-16T21:25:59.238Z,23.40
2022-08-16T21:31:02.909Z,22.40
2022-08-16T21:36:06.415Z,24.30
2022-08-16T21:41:12.949Z,23.60
2022-08-16T21:46:16.047Z,22.80
2022-08-16T21:51:19.072Z,23.00
2022-08-16T21:56:22.110Z,21.50
2022-08-16T22:01:26.656Z,21.10
2022-08-16T22:06:29.723Z,23.70
2022-08-16T22:11:33.587Z,24.10
2022-08-16T22:16:39.804Z,23.10
2022-08-16T22:21:42.901Z,26.10
2022-08-16T22:26:45.910Z,22.90
2022-08-16T22:31:48.957Z,25.60
2022-08-16T22:36:51.969Z,25.30
2022-08-16T22:41:55.236Z,25.90
2022-08-16T22:46:58.603Z,26.20
2022-08-16T22:52:07.475Z,24.80
2022-08-16T22:57:10.580Z,26.60
2022-08-16T23:02:15.091Z,24.80
2022-08-16T23:07:18.297Z,23.50
2022-08-16T23:12:26.236Z,25.40
2022-08-16T23:17:32.325Z,25.40
2022-08-16T23:23:19.968Z,25.00
2022-08-16T23:28:16.834Z,23.40
2022-08-16T23:33:21.919Z,24.90
2022-08-16T23:38:37.571Z,23.20
2022-08-16T23:43:43.648Z,24.90
2022-08-16T23:49:56.907Z,25.50
2022-08-16T23:54:11.767Z,25.20
2022-08-16T23:59:14.779Z,25.20
